createdAt,value
2018-04-17T00:00:10.117Z,13.62
2018-04-17T00:10:07.881Z,13.41
2018-04-17T00:20:02.981Z,13.44
2018-04-17T00:30:00.338Z,13.29
2018-04-17T00:39:59.106Z,13.29
2018-04-17T00:49:56.099Z,13.36
2018-04-17T00:59:51.637Z,13.18
2018-04-17T01:09:49.545Z,13.10
2018-04-17T01:19:48.159Z,12.92
2018-04-17T01:29:46.315Z,13.00
2018-04-17T01:39:43.736Z,12.94
2018-04-17T01:49:40.652Z,12.96
2018-04-17T01:59:37.008Z,13.02
2018-04-17T02:09:35.490Z,12.91
2018-04-17T02:19:32.729Z,13.04
2018-04-17T02:29:30.743Z,13.02
2018-04-17T02:39:27.335Z,13.02
2018-04-17T02:49:24.084Z,12.86
2018-04-17T02:59:22.514Z,12.86
2018-04-17T03:09:21.106Z,12.91
2018-04-17T03:19:18.248Z,12.86
2018-04-17T03:29:14.153Z,12.84
2018-04-17T03:39:12.078Z,12.79
2018-04-17T03:49:09.803Z,12.79
2018-04-17T03:59:06.930Z,12.77
2018-04-17T04:09:03.502Z,12.74
2018-04-17T04:19:01.290Z,12.73
2018-04-17T04:28:59.413Z,12.71
2018-04-17T04:38:53.319Z,12.70
2018-04-17T04:48:51.884Z,12.74
2018-04-17T04:58:46.835Z,12.86
2018-04-17T05:08:43.565Z,12.97
2018-04-17T05:18:41.625Z,12.99
2018-04-17T05:28:40.165Z,13.21
2018-04-17T05:38:36.282Z,13.17
2018-04-17T05:48:33.448Z,13.25
2018-04-17T05:58:29.283Z,13.56
2018-04-17T06:08:27.621Z,13.70
2018-04-17T06:18:24.335Z,13.86
2018-04-17T06:28:19.262Z,14.10
2018-04-17T06:38:16.821Z,13.98
2018-04-17T06:48:12.841Z,14.09
2018-04-17T06:58:08.280Z,13.96
2018-04-17T07:08:02.487Z,14.19
2018-04-17T07:17:58.135Z,14.61
2018-04-17T07:27:51.477Z,15.01
2018-04-17T07:37:46.952Z,15.28
2018-04-17T07:47:40.331Z,15.63
2018-04-17T07:57:35.543Z,15.83
2018-04-17T08:07:32.445Z,16.07
2018-04-17T08:17:26.997Z,16.74
2018-04-17T08:27:22.275Z,17.13
2018-04-17T08:37:20.254Z,17.33
2018-04-17T08:47:18.710Z,17.29
2018-04-17T08:57:11.097Z,17.82
2018-04-17T09:07:08.092Z,18.42
2018-04-17T09:17:05.217Z,18.76
2018-04-17T09:27:00.936Z,18.83
2018-04-17T09:36:56.946Z,18.77
2018-04-17T09:46:51.689Z,18.49
2018-04-17T09:56:46.044Z,18.73
2018-04-17T10:06:44.388Z,19.40
2018-04-17T10:16:21.425Z,19.21
2018-04-17T10:25:59.027Z,20.34
2018-04-17T10:35:36.372Z,20.13
2018-04-17T10:45:13.819Z,19.54
2018-04-17T10:54:50.323Z,19.09
2018-04-17T11:04:28.079Z,19.64
2018-04-17T11:14:05.488Z,20.30
2018-04-17T11:23:43.361Z,20.35
2018-04-17T11:33:21.017Z,20.20
2018-04-17T11:42:57.496Z,20.42
2018-04-17T11:52:34.352Z,20.27
2018-04-17T12:02:11.282Z,20.42
2018-04-17T12:11:48.406Z,20.40
2018-04-17T12:21:26.688Z,21.17
2018-04-17T12:31:05.893Z,21.66
2018-04-17T12:40:44.449Z,21.72
2018-04-17T12:50:23.292Z,22.83
2018-04-17T12:59:59.685Z,23.33
2018-04-17T13:09:37.007Z,21.97
2018-04-17T13:19:12.587Z,21.74
2018-04-17T13:28:52.160Z,22.04
2018-04-17T13:38:29.883Z,22.10
2018-04-17T13:48:06.336Z,21.72
2018-04-17T13:57:48.630Z,24.08
2018-04-17T14:07:32.545Z,24.71
2018-04-17T14:17:08.708Z,24.75
2018-04-17T14:26:43.147Z,23.31
2018-04-17T14:36:20.974Z,22.77
2018-04-17T14:45:47.550Z,21.46
2018-04-17T14:55:23.229Z,21.33
2018-04-17T15:05:07.011Z,22.02
2018-04-17T15:14:49.150Z,24.00
2018-04-17T15:24:36.343Z,24.23
2018-04-17T15:34:07.461Z,24.23
2018-04-17T15:43:43.109Z,23.20
2018-04-17T15:53:23.397Z,23.61
2018-04-17T16:02:54.205Z,21.75
2018-04-17T16:12:23.920Z,21.06
2018-04-17T16:21:51.233Z,20.82
2018-04-17T16:31:27.107Z,20.46
2018-04-17T16:41:03.382Z,19.95
2018-04-17T16:50:39.475Z,19.76
2018-04-17T17:00:15.529Z,19.57
2018-04-17T17:09:51.582Z,19.21
2018-04-17T17:19:28.630Z,19.05
2018-04-17T17:29:04.154Z,18.67
2018-04-17T17:38:58.893Z,17.66
2018-04-17T17:48:52.324Z,16.89
2018-04-17T17:58:46.387Z,16.38
2018-04-17T18:08:41.176Z,15.81
2018-04-17T18:18:37.224Z,15.57
2018-04-17T18:28:32.863Z,14.98
2018-04-17T18:38:26.402Z,14.68
2018-04-17T18:48:22.181Z,14.35
2018-04-17T18:58:19.139Z,14.03
2018-04-17T19:08:15.079Z,13.78
2018-04-17T19:18:11.524Z,13.62
2018-04-17T19:28:06.740Z,13.43
2018-04-17T19:38:02.723Z,13.38
2018-04-17T19:47:59.042Z,13.15
2018-04-17T19:57:52.646Z,12.99
2018-04-17T20:07:48.418Z,12.85
2018-04-17T20:17:44.062Z,12.41
2018-04-17T20:27:39.539Z,12.11
2018-04-17T20:37:35.638Z,11.84
2018-04-17T20:47:33.217Z,11.56
2018-04-17T20:57:29.245Z,11.59
2018-04-17T21:07:23.075Z,11.50
2018-04-17T21:17:20.562Z,11.34
2018-04-17T21:27:18.044Z,11.28
2018-04-17T21:37:13.199Z,10.98
2018-04-17T21:47:09.521Z,11.03
2018-04-17T21:57:07.519Z,10.95
2018-04-17T22:07:04.476Z,10.78
2018-04-17T22:16:58.880Z,10.67
2018-04-17T22:26:54.450Z,10.55
2018-04-17T22:36:50.205Z,10.29
2018-04-17T22:46:46.860Z,10.15
2018-04-17T22:56:45.769Z,10.11
2018-04-17T23:06:40.885Z,10.03
2018-04-17T23:16:36.213Z,9.74
2018-04-17T23:26:34.029Z,9.70
2018-04-17T23:36:29.813Z,9.58
2018-04-17T23:46:25.367Z,9.47
2018-04-17T23:56:22.420Z,9.45
